createdAt,value
2023-03-23T16:01:40.526Z,54.71
2023-03-23T16:06:44.142Z,53.98
2023-03-23T16:11:46.431Z,52.55
2023-03-23T16:16:53.051Z,54.20
2023-03-23T16:21:55.401Z,53.29
2023-03-23T16:26:57.664Z,55.51
2023-03-23T16:31:59.760Z,55.49
2023-03-23T16:37:02.727Z,53.86
2023-03-23T16:42:04.862Z,53.27
2023-03-23T16:47:06.995Z,53.69
2023-03-23T16:52:09.327Z,55.37
2023-03-23T16:57:12.263Z,54.76
2023-03-23T17:02:14.506Z,55.75
2023-03-23T17:07:16.768Z,56.28
2023-03-23T17:12:19.044Z,57.60
2023-03-23T17:17:21.179Z,56.23
2023-03-23T17:22:23.954Z,55.18
2023-03-23T17:27:26.673Z,53.99
2023-03-23T17:32:29.163Z,53.57
2023-03-23T17:37:31.891Z,54.36
2023-03-23T17:42:34.517Z,53.90
2023-03-23T17:47:37.181Z,52.90
2023-03-23T17:52:39.866Z,52.74
2023-03-23T17:57:43.378Z,53.80
2023-03-23T18:02:47.053Z,55.46
2023-03-23T18:07:49.418Z,54.03
2023-03-23T18:12:51.675Z,56.18
2023-03-23T18:17:53.896Z,54.87
2023-03-23T18:22:57.789Z,54.45
2023-03-23T18:28:05.325Z,54.76
2023-03-23T18:33:09.319Z,56.38
2023-03-23T18:38:12.993Z,56.50
2023-03-23T18:43:15.232Z,54.37
2023-03-23T18:48:17.509Z,54.26
2023-03-23T18:53:21.207Z,53.22
2023-03-23T18:58:23.444Z,55.10
2023-03-23T19:03:26.411Z,55.87
2023-03-23T19:08:30.225Z,55.03
2023-03-23T19:13:37.560Z,55.82
2023-03-23T19:18:41.217Z,54.86
2023-03-23T19:23:43.677Z,56.68
2023-03-23T19:29:21.481Z,51.67
2023-03-23T19:34:08.747Z,50.26
2023-03-23T19:39:11.380Z,51.50
2023-03-23T19:44:13.828Z,50.48
2023-03-23T19:49:16.338Z,50.05
2023-03-23T19:54:19.110Z,49.62
2023-03-23T19:59:21.225Z,49.36
2023-03-23T20:04:24.307Z,49.59
2023-03-23T20:09:27.427Z,48.94
2023-03-23T20:14:30.337Z,49.88
2023-03-23T20:19:32.607Z,50.10
2023-03-23T20:24:34.904Z,49.75
2023-03-23T20:29:37.071Z,50.15
2023-03-23T20:34:39.269Z,50.51
2023-03-23T20:39:42.411Z,49.93
2023-03-23T20:44:44.812Z,49.87
2023-03-23T20:49:53.067Z,49.91
2023-03-23T20:54:56.487Z,49.04
2023-03-23T20:59:59.112Z,47.94
2023-03-23T21:05:04.919Z,48.11
2023-03-23T21:10:07.371Z,48.27
2023-03-23T21:15:10.202Z,48.06
2023-03-23T21:20:12.766Z,48.56
2023-03-23T21:25:15.343Z,47.21
2023-03-23T21:30:20.714Z,47.69
2023-03-23T21:35:23.168Z,47.26
2023-03-23T21:40:25.271Z,47.91
2023-03-23T21:45:29.086Z,47.49
2023-03-23T21:50:35.637Z,47.10
2023-03-23T21:55:37.940Z,47.28
2023-03-23T22:00:41.466Z,46.82
2023-03-23T22:05:43.764Z,46.59
2023-03-23T22:11:00.390Z,46.37
2023-03-23T22:16:07.980Z,46.31
2023-03-23T22:21:10.807Z,47.21
2023-03-23T22:26:16.708Z,46.54
2023-03-23T22:31:27.497Z,47.32
2023-03-23T22:36:33.154Z,48.18
2023-03-23T22:41:39.821Z,48.71
2023-03-23T22:46:42.770Z,51.73
2023-03-23T22:51:45.634Z,51.71
2023-03-23T22:56:48.067Z,52.57
2023-03-23T23:01:50.285Z,50.29
2023-03-23T23:07:00.385Z,48.03
2023-03-23T23:12:10.574Z,48.39
2023-03-23T23:17:12.699Z,47.75
2023-03-23T23:22:19.261Z,47.93
2023-03-23T23:27:22.030Z,48.96
2023-03-23T23:32:25.330Z,50.03
2023-03-23T23:37:27.922Z,49.01
2023-03-23T23:42:30.139Z,48.94
2023-03-23T23:47:32.470Z,47.83
2023-03-23T23:52:36.781Z,49.03
2023-03-23T23:57:39.423Z,48.44
